Lopezville, Texas
Current Conditions -  °F | °C
As of 11:53 AM on Thursday 30 Oct 2014 (Local Time) from KMFE Reporting Station
Few Clouds Few Clouds  
Wind Chill: 81°   Ceiling: Unl
Heat Index: 83°   Visibility: 10mi
Dew Point: 67°   Wind: 3mph
Humidity: 62%   Direction: 120°ESE
Pressure: 30.1"   Gusts: NA
Location:  26.158°N, 98.1543°W
Report Text: KMFE 301653Z 12003KT 10SM FEW033 27/19 A3010 RMK AO2 SLP190 T02720194
Loading
Personal Weather Stations






























Interactive Weather Map
Tropical Storm Tracking
New forecast layout! Learn more

10-Day Weather Forecast

Advertisements
Track Severe Weather on mobile